sensor_id;sensor_type;location;lat;lon;timestamp;P1;durP1;ratioP1;P2;durP2;ratioP2
68680;SDS011;55836;49.858;6.756;2023-11-19T00:00:19;4.20;;;3.73;;
68680;SDS011;55836;49.858;6.756;2023-11-19T00:02:45;2.00;;;1.80;;
68680;SDS011;55836;49.858;6.756;2023-11-19T00:05:12;1.70;;;1.60;;
68680;SDS011;55836;49.858;6.756;2023-11-19T00:07:38;2.67;;;2.20;;
68680;SDS011;55836;49.858;6.756;2023-11-19T00:10:11;1.60;;;1.50;;
68680;SDS011;55836;49.858;6.756;2023-11-19T00:12:38;2.20;;;1.50;;
68680;SDS011;55836;49.858;6.756;2023-11-19T00:15:05;1.97;;;1.77;;
68680;SDS011;55836;49.858;6.756;2023-11-19T00:17:36;2.83;;;2.63;;
68680;SDS011;55836;49.858;6.756;2023-11-19T00:20:02;1.80;;;1.70;;
68680;SDS011;55836;49.858;6.756;2023-11-19T00:22:30;3.10;;;1.60;;
68680;SDS011;55836;49.858;6.756;2023-11-19T00:24:56;2.37;;;1.40;;
68680;SDS011;55836;49.858;6.756;2023-11-19T00:27:22;1.73;;;1.63;;
68680;SDS011;55836;49.858;6.756;2023-11-19T00:29:48;2.03;;;1.67;;
68680;SDS011;55836;49.858;6.756;2023-11-19T00:32:14;1.70;;;1.60;;
68680;SDS011;55836;49.858;6.756;2023-11-19T00:34:40;2.10;;;1.90;;
68680;SDS011;55836;49.858;6.756;2023-11-19T00:37:06;2.70;;;1.80;;
68680;SDS011;55836;49.858;6.756;2023-11-19T00:39:32;2.03;;;1.70;;
68680;SDS011;55836;49.858;6.756;2023-11-19T00:41:58;1.50;;;1.40;;
68680;SDS011;55836;49.858;6.756;2023-11-19T00:44:24;1.53;;;1.43;;
68680;SDS011;55836;49.858;6.756;2023-11-19T00:46:50;2.37;;;1.37;;
68680;SDS011;55836;49.858;6.756;2023-11-19T00:49:16;3.57;;;2.07;;
68680;SDS011;55836;49.858;6.756;2023-11-19T00:51:42;1.70;;;1.60;;
68680;SDS011;55836;49.858;6.756;2023-11-19T00:54:08;4.70;;;2.00;;
68680;SDS011;55836;49.858;6.756;2023-11-19T00:56:34;1.87;;;1.60;;
68680;SDS011;55836;49.858;6.756;2023-11-19T00:59:00;1.87;;;1.77;;
68680;SDS011;55836;49.858;6.756;2023-11-19T01:01:26;2.33;;;1.77;;
68680;SDS011;55836;49.858;6.756;2023-11-19T01:03:52;2.67;;;1.60;;
68680;SDS011;55836;49.858;6.756;2023-11-19T01:06:30;1.30;;;1.17;;
68680;SDS011;55836;49.858;6.756;2023-11-19T01:08:57;2.07;;;1.50;;
68680;SDS011;55836;49.858;6.756;2023-11-19T01:11:23;1.57;;;1.20;;
68680;SDS011;55836;49.858;6.756;2023-11-19T01:13:50;1.30;;;1.20;;
68680;SDS011;55836;49.858;6.756;2023-11-19T01:16:16;1.30;;;1.20;;
68680;SDS011;55836;49.858;6.756;2023-11-19T01:18:42;1.40;;;1.30;;
68680;SDS011;55836;49.858;6.756;2023-11-19T01:21:08;2.10;;;1.13;;
68680;SDS011;55836;49.858;6.756;2023-11-19T01:23:34;2.03;;;1.00;;
68680;SDS011;55836;49.858;6.756;2023-11-19T01:26:02;2.07;;;1.33;;
68680;SDS011;55836;49.858;6.756;2023-11-19T01:28:28;1.47;;;1.37;;
68680;SDS011;55836;49.858;6.756;2023-11-19T01:30:55;5.73;;;1.40;;
68680;SDS011;55836;49.858;6.756;2023-11-19T01:33:21;2.50;;;1.50;;
68680;SDS011;55836;49.858;6.756;2023-11-19T01:35:47;1.57;;;1.47;;
68680;SDS011;55836;49.858;6.756;2023-11-19T01:38:13;1.60;;;1.30;;
68680;SDS011;55836;49.858;6.756;2023-11-19T01:40:39;2.67;;;1.30;;
68680;SDS011;55836;49.858;6.756;2023-11-19T01:43:05;2.63;;;1.50;;
68680;SDS011;55836;49.858;6.756;2023-11-19T01:45:31;2.17;;;1.83;;
68680;SDS011;55836;49.858;6.756;2023-11-19T01:48:00;3.20;;;1.53;;
68680;SDS011;55836;49.858;6.756;2023-11-19T01:50:26;1.60;;;1.50;;
68680;SDS011;55836;49.858;6.756;2023-11-19T01:52:53;3.70;;;2.10;;
68680;SDS011;55836;49.858;6.756;2023-11-19T01:55:22;2.73;;;2.00;;
68680;SDS011;55836;49.858;6.756;2023-11-19T01:57:48;3.10;;;1.60;;
68680;SDS011;55836;49.858;6.756;2023-11-19T02:00:16;2.10;;;1.90;;
68680;SDS011;55836;49.858;6.756;2023-11-19T02:02:42;1.70;;;1.43;;
68680;SDS011;55836;49.858;6.756;2023-11-19T02:05:12;1.97;;;1.70;;
68680;SDS011;55836;49.858;6.756;2023-11-19T02:07:38;2.37;;;1.60;;
68680;SDS011;55836;49.858;6.756;2023-11-19T02:10:05;3.00;;;1.50;;
68680;SDS011;55836;49.858;6.756;2023-11-19T02:12:34;1.97;;;1.73;;
68680;SDS011;55836;49.858;6.756;2023-11-19T02:15:01;2.77;;;1.80;;
68680;SDS011;55836;49.858;6.756;2023-11-19T02:17:27;1.83;;;1.60;;
68680;SDS011;55836;49.858;6.756;2023-11-19T02:19:54;2.40;;;1.70;;
68680;SDS011;55836;49.858;6.756;2023-11-19T02:22:20;3.53;;;2.10;;
68680;SDS011;55836;49.858;6.756;2023-11-19T02:24:46;2.00;;;1.90;;
68680;SDS011;55836;49.858;6.756;2023-11-19T02:27:15;2.80;;;1.70;;
68680;SDS011;55836;49.858;6.756;2023-11-19T02:29:42;1.97;;;1.80;;
68680;SDS011;55836;49.858;6.756;2023-11-19T02:32:08;2.00;;;1.70;;
68680;SDS011;55836;49.858;6.756;2023-11-19T02:34:34;2.90;;;1.80;;
68680;SDS011;55836;49.858;6.756;2023-11-19T02:37:00;2.67;;;2.07;;
68680;SDS011;55836;49.858;6.756;2023-11-19T02:39:26;1.93;;;1.80;;
68680;SDS011;55836;49.858;6.756;2023-11-19T02:41:53;2.70;;;2.07;;
68680;SDS011;55836;49.858;6.756;2023-11-19T02:44:19;2.33;;;1.90;;
68680;SDS011;55836;49.858;6.756;2023-11-19T02:46:45;2.43;;;2.23;;
68680;SDS011;55836;49.858;6.756;2023-11-19T02:49:13;2.73;;;2.00;;
68680;SDS011;55836;49.858;6.756;2023-11-19T02:51:39;3.10;;;1.80;;
68680;SDS011;55836;49.858;6.756;2023-11-19T02:54:05;2.33;;;2.20;;
68680;SDS011;55836;49.858;6.756;2023-11-19T02:56:31;2.30;;;2.10;;
68680;SDS011;55836;49.858;6.756;2023-11-19T02:59:00;2.20;;;2.00;;
68680;SDS011;55836;49.858;6.756;2023-11-19T03:01:39;3.00;;;2.17;;
68680;SDS011;55836;49.858;6.756;2023-11-19T03:04:08;2.67;;;2.30;;
68680;SDS011;55836;49.858;6.756;2023-11-19T03:06:37;2.33;;;2.10;;
68680;SDS011;55836;49.858;6.756;2023-11-19T03:09:03;4.47;;;2.40;;
68680;SDS011;55836;49.858;6.756;2023-11-19T03:11:35;5.53;;;2.60;;
68680;SDS011;55836;49.858;6.756;2023-11-19T03:14:01;3.63;;;2.23;;
68680;SDS011;55836;49.858;6.756;2023-11-19T03:16:30;2.10;;;2.00;;
68680;SDS011;55836;49.858;6.756;2023-11-19T03:18:57;4.13;;;2.60;;
68680;SDS011;55836;49.858;6.756;2023-11-19T03:21:28;3.77;;;2.30;;
68680;SDS011;55836;49.858;6.756;2023-11-19T03:23:54;2.57;;;2.37;;
68680;SDS011;55836;49.858;6.756;2023-11-19T03:26:21;3.67;;;2.80;;
68680;SDS011;55836;49.858;6.756;2023-11-19T03:28:47;5.40;;;2.60;;
68680;SDS011;55836;49.858;6.756;2023-11-19T03:31:13;4.10;;;2.93;;
68680;SDS011;55836;49.858;6.756;2023-11-19T03:33:39;5.13;;;3.03;;
68680;SDS011;55836;49.858;6.756;2023-11-19T03:36:05;5.33;;;4.10;;
68680;SDS011;55836;49.858;6.756;2023-11-19T03:38:32;4.77;;;4.23;;
68680;SDS011;55836;49.858;6.756;2023-11-19T03:40:58;4.77;;;3.47;;
68680;SDS011;55836;49.858;6.756;2023-11-19T03:43:24;13.27;;;10.33;;
68680;SDS011;55836;49.858;6.756;2023-11-19T03:45:50;8.33;;;6.07;;
68680;SDS011;55836;49.858;6.756;2023-11-19T03:48:16;4.47;;;4.07;;
68680;SDS011;55836;49.858;6.756;2023-11-19T03:50:42;4.83;;;3.90;;
68680;SDS011;55836;49.858;6.756;2023-11-19T03:53:08;4.67;;;3.73;;
68680;SDS011;55836;49.858;6.756;2023-11-19T03:55:34;3.40;;;2.93;;
68680;SDS011;55836;49.858;6.756;2023-11-19T03:58:00;4.40;;;3.50;;
68680;SDS011;55836;49.858;6.756;2023-11-19T04:00:26;4.60;;;4.10;;
68680;SDS011;55836;49.858;6.756;2023-11-19T04:02:52;5.40;;;3.93;;
68680;SDS011;55836;49.858;6.756;2023-11-19T04:05:18;6.50;;;4.20;;
68680;SDS011;55836;49.858;6.756;2023-11-19T04:07:44;5.13;;;3.87;;
68680;SDS011;55836;49.858;6.756;2023-11-19T04:10:10;6.93;;;3.60;;
68680;SDS011;55836;49.858;6.756;2023-11-19T04:12:36;4.97;;;4.10;;
68680;SDS011;55836;49.858;6.756;2023-11-19T04:15:02;6.13;;;4.27;;
68680;SDS011;55836;49.858;6.756;2023-11-19T04:17:29;6.63;;;4.27;;
68680;SDS011;55836;49.858;6.756;2023-11-19T04:19:55;8.10;;;4.20;;
68680;SDS011;55836;49.858;6.756;2023-11-19T04:22:21;5.83;;;3.70;;
68680;SDS011;55836;49.858;6.756;2023-11-19T04:24:47;7.37;;;4.13;;
68680;SDS011;55836;49.858;6.756;2023-11-19T04:27:13;8.90;;;4.70;;
68680;SDS011;55836;49.858;6.756;2023-11-19T04:29:39;9.63;;;4.80;;
68680;SDS011;55836;49.858;6.756;2023-11-19T04:32:05;7.20;;;4.57;;
68680;SDS011;55836;49.858;6.756;2023-11-19T04:34:32;6.93;;;4.50;;
68680;SDS011;55836;49.858;6.756;2023-11-19T04:36:58;7.37;;;4.90;;
68680;SDS011;55836;49.858;6.756;2023-11-19T04:39:27;6.83;;;4.70;;
68680;SDS011;55836;49.858;6.756;2023-11-19T04:41:56;7.67;;;4.63;;
68680;SDS011;55836;49.858;6.756;2023-11-19T04:44:22;6.17;;;4.33;;
68680;SDS011;55836;49.858;6.756;2023-11-19T04:46:48;6.03;;;4.33;;
68680;SDS011;55836;49.858;6.756;2023-11-19T04:49:14;5.20;;;3.80;;
68680;SDS011;55836;49.858;6.756;2023-11-19T04:51:41;6.77;;;4.20;;
68680;SDS011;55836;49.858;6.756;2023-11-19T04:54:08;6.43;;;4.60;;
68680;SDS011;55836;49.858;6.756;2023-11-19T04:56:35;7.83;;;4.37;;
68680;SDS011;55836;49.858;6.756;2023-11-19T04:59:04;5.23;;;4.10;;
68680;SDS011;55836;49.858;6.756;2023-11-19T05:01:31;5.67;;;3.60;;
68680;SDS011;55836;49.858;6.756;2023-11-19T05:03:57;7.70;;;4.30;;
68680;SDS011;55836;49.858;6.756;2023-11-19T05:06:29;5.63;;;3.50;;
68680;SDS011;55836;49.858;6.756;2023-11-19T05:08:56;5.83;;;3.70;;
68680;SDS011;55836;49.858;6.756;2023-11-19T05:11:22;55.23;;;6.70;;
68680;SDS011;55836;49.858;6.756;2023-11-19T05:13:48;3.17;;;2.87;;
68680;SDS011;55836;49.858;6.756;2023-11-19T05:16:14;4.53;;;3.70;;
68680;SDS011;55836;49.858;6.756;2023-11-19T05:18:41;5.63;;;3.17;;
68680;SDS011;55836;49.858;6.756;2023-11-19T05:21:07;4.40;;;2.80;;
68680;SDS011;55836;49.858;6.756;2023-11-19T05:23:33;7.00;;;2.90;;
68680;SDS011;55836;49.858;6.756;2023-11-19T05:26:00;2.93;;;2.57;;
68680;SDS011;55836;49.858;6.756;2023-11-19T05:28:26;3.13;;;2.50;;
68680;SDS011;55836;49.858;6.756;2023-11-19T05:30:52;4.73;;;3.00;;
68680;SDS011;55836;49.858;6.756;2023-11-19T05:33:18;3.20;;;2.67;;
68680;SDS011;55836;49.858;6.756;2023-11-19T05:35:44;3.60;;;2.70;;
68680;SDS011;55836;49.858;6.756;2023-11-19T05:38:10;3.47;;;3.00;;
68680;SDS011;55836;49.858;6.756;2023-11-19T05:40:36;7.47;;;2.70;;
68680;SDS011;55836;49.858;6.756;2023-11-19T05:43:03;4.33;;;2.30;;
68680;SDS011;55836;49.858;6.756;2023-11-19T05:45:30;5.53;;;2.60;;
68680;SDS011;55836;49.858;6.756;2023-11-19T05:47:56;5.00;;;2.47;;
68680;SDS011;55836;49.858;6.756;2023-11-19T05:50:22;3.63;;;2.63;;
68680;SDS011;55836;49.858;6.756;2023-11-19T05:52:48;5.93;;;2.77;;
68680;SDS011;55836;49.858;6.756;2023-11-19T05:55:14;8.73;;;2.93;;
68680;SDS011;55836;49.858;6.756;2023-11-19T05:57:40;4.97;;;2.77;;
68680;SDS011;55836;49.858;6.756;2023-11-19T06:00:07;5.40;;;2.70;;
68680;SDS011;55836;49.858;6.756;2023-11-19T06:02:33;5.13;;;3.40;;
68680;SDS011;55836;49.858;6.756;2023-11-19T06:05:00;5.17;;;3.30;;
68680;SDS011;55836;49.858;6.756;2023-11-19T06:07:26;4.03;;;3.13;;
68680;SDS011;55836;49.858;6.756;2023-11-19T06:09:53;6.83;;;3.70;;
68680;SDS011;55836;49.858;6.756;2023-11-19T06:12:19;6.70;;;3.60;;
68680;SDS011;55836;49.858;6.756;2023-11-19T06:14:45;10.43;;;3.43;;
68680;SDS011;55836;49.858;6.756;2023-11-19T06:17:11;6.00;;;3.10;;
68680;SDS011;55836;49.858;6.756;2023-11-19T06:19:37;6.83;;;3.00;;
68680;SDS011;55836;49.858;6.756;2023-11-19T06:22:03;9.30;;;3.77;;
68680;SDS011;55836;49.858;6.756;2023-11-19T06:24:29;6.83;;;3.17;;
68680;SDS011;55836;49.858;6.756;2023-11-19T06:26:55;5.00;;;3.40;;
68680;SDS011;55836;49.858;6.756;2023-11-19T06:29:21;13.23;;;3.20;;
68680;SDS011;55836;49.858;6.756;2023-11-19T06:31:47;5.97;;;3.30;;
68680;SDS011;55836;49.858;6.756;2023-11-19T06:34:14;6.73;;;3.20;;
68680;SDS011;55836;49.858;6.756;2023-11-19T06:36:40;8.23;;;3.77;;
68680;SDS011;55836;49.858;6.756;2023-11-19T06:39:06;8.23;;;3.63;;
68680;SDS011;55836;49.858;6.756;2023-11-19T06:41:32;6.73;;;3.40;;
68680;SDS011;55836;49.858;6.756;2023-11-19T06:43:57;6.30;;;3.53;;
68680;SDS011;55836;49.858;6.756;2023-11-19T06:46:24;5.30;;;3.50;;
68680;SDS011;55836;49.858;6.756;2023-11-19T06:48:50;7.53;;;4.17;;
68680;SDS011;55836;49.858;6.756;2023-11-19T06:51:16;7.57;;;4.70;;
68680;SDS011;55836;49.858;6.756;2023-11-19T06:53:42;5.77;;;4.33;;
68680;SDS011;55836;49.858;6.756;2023-11-19T06:56:22;8.93;;;4.00;;
68680;SDS011;55836;49.858;6.756;2023-11-19T06:58:48;10.27;;;4.30;;
68680;SDS011;55836;49.858;6.756;2023-11-19T07:01:15;7.40;;;4.40;;
68680;SDS011;55836;49.858;6.756;2023-11-19T07:03:41;6.47;;;4.27;;
68680;SDS011;55836;49.858;6.756;2023-11-19T07:06:07;10.57;;;4.63;;
68680;SDS011;55836;49.858;6.756;2023-11-19T07:08:33;8.40;;;4.20;;
68680;SDS011;55836;49.858;6.756;2023-11-19T07:10:59;13.20;;;4.67;;
68680;SDS011;55836;49.858;6.756;2023-11-19T07:13:25;6.20;;;4.23;;
68680;SDS011;55836;49.858;6.756;2023-11-19T07:15:52;8.77;;;4.33;;
68680;SDS011;55836;49.858;6.756;2023-11-19T07:18:18;9.23;;;3.97;;
68680;SDS011;55836;49.858;6.756;2023-11-19T07:20:47;6.97;;;3.80;;
68680;SDS011;55836;49.858;6.756;2023-11-19T07:23:13;7.00;;;4.13;;
68680;SDS011;55836;49.858;6.756;2023-11-19T07:25:41;11.30;;;4.07;;
68680;SDS011;55836;49.858;6.756;2023-11-19T07:28:08;11.50;;;3.70;;
68680;SDS011;55836;49.858;6.756;2023-11-19T07:30:35;7.97;;;3.63;;
68680;SDS011;55836;49.858;6.756;2023-11-19T07:33:01;11.63;;;4.03;;
68680;SDS011;55836;49.858;6.756;2023-11-19T07:35:29;11.87;;;4.23;;
68680;SDS011;55836;49.858;6.756;2023-11-19T07:38:00;9.53;;;4.00;;
68680;SDS011;55836;49.858;6.756;2023-11-19T07:40:27;10.27;;;3.53;;
68680;SDS011;55836;49.858;6.756;2023-11-19T07:42:53;7.07;;;4.40;;
68680;SDS011;55836;49.858;6.756;2023-11-19T07:45:19;12.23;;;3.80;;
68680;SDS011;55836;49.858;6.756;2023-11-19T07:47:46;10.70;;;3.90;;
68680;SDS011;55836;49.858;6.756;2023-11-19T07:50:12;10.90;;;4.70;;
68680;SDS011;55836;49.858;6.756;2023-11-19T07:52:39;13.53;;;5.07;;
68680;SDS011;55836;49.858;6.756;2023-11-19T07:55:05;11.77;;;4.77;;
68680;SDS011;55836;49.858;6.756;2023-11-19T07:57:31;17.17;;;5.00;;
68680;SDS011;55836;49.858;6.756;2023-11-19T07:59:57;13.93;;;4.40;;
68680;SDS011;55836;49.858;6.756;2023-11-19T08:02:23;12.30;;;4.57;;
68680;SDS011;55836;49.858;6.756;2023-11-19T08:04:50;12.83;;;4.00;;
68680;SDS011;55836;49.858;6.756;2023-11-19T08:07:17;13.40;;;4.47;;
68680;SDS011;55836;49.858;6.756;2023-11-19T08:09:44;12.20;;;4.33;;
68680;SDS011;55836;49.858;6.756;2023-11-19T08:12:10;8.97;;;4.17;;
68680;SDS011;55836;49.858;6.756;2023-11-19T08:14:36;11.70;;;4.37;;
68680;SDS011;55836;49.858;6.756;2023-11-19T08:17:02;11.70;;;4.27;;
68680;SDS011;55836;49.858;6.756;2023-11-19T08:19:28;15.37;;;5.13;;
68680;SDS011;55836;49.858;6.756;2023-11-19T08:21:54;8.93;;;3.67;;
68680;SDS011;55836;49.858;6.756;2023-11-19T08:24:20;11.70;;;5.10;;
68680;SDS011;55836;49.858;6.756;2023-11-19T08:26:46;9.10;;;4.67;;
68680;SDS011;55836;49.858;6.756;2023-11-19T08:29:12;11.70;;;4.27;;
68680;SDS011;55836;49.858;6.756;2023-11-19T08:31:39;12.93;;;4.67;;
68680;SDS011;55836;49.858;6.756;2023-11-19T08:34:05;13.07;;;4.93;;
68680;SDS011;55836;49.858;6.756;2023-11-19T08:36:34;14.83;;;4.60;;
68680;SDS011;55836;49.858;6.756;2023-11-19T08:39:00;15.93;;;4.73;;
68680;SDS011;55836;49.858;6.756;2023-11-19T08:41:26;11.60;;;4.83;;
68680;SDS011;55836;49.858;6.756;2023-11-19T08:43:52;12.37;;;4.60;;
68680;SDS011;55836;49.858;6.756;2023-11-19T08:46:18;13.13;;;4.87;;
68680;SDS011;55836;49.858;6.756;2023-11-19T08:48:44;13.70;;;5.13;;
68680;SDS011;55836;49.858;6.756;2023-11-19T08:51:11;18.17;;;5.43;;
68680;SDS011;55836;49.858;6.756;2023-11-19T08:53:37;13.07;;;5.67;;
68680;SDS011;55836;49.858;6.756;2023-11-19T08:56:03;13.27;;;5.07;;
68680;SDS011;55836;49.858;6.756;2023-11-19T08:58:30;24.27;;;6.13;;
68680;SDS011;55836;49.858;6.756;2023-11-19T09:00:56;17.20;;;5.27;;
68680;SDS011;55836;49.858;6.756;2023-11-19T09:03:22;22.73;;;7.03;;
68680;SDS011;55836;49.858;6.756;2023-11-19T09:05:50;19.73;;;7.10;;
68680;SDS011;55836;49.858;6.756;2023-11-19T09:08:16;17.70;;;5.97;;
68680;SDS011;55836;49.858;6.756;2023-11-19T09:10:42;29.47;;;8.60;;
68680;SDS011;55836;49.858;6.756;2023-11-19T09:13:08;16.13;;;7.70;;
68680;SDS011;55836;49.858;6.756;2023-11-19T09:15:35;20.00;;;7.13;;
68680;SDS011;55836;49.858;6.756;2023-11-19T09:18:01;20.43;;;6.90;;
68680;SDS011;55836;49.858;6.756;2023-11-19T09:20:27;19.93;;;7.57;;
68680;SDS011;55836;49.858;6.756;2023-11-19T09:22:52;18.20;;;6.83;;
68680;SDS011;55836;49.858;6.756;2023-11-19T09:25:19;18.90;;;7.80;;
68680;SDS011;55836;49.858;6.756;2023-11-19T09:27:45;30.73;;;12.30;;
68680;SDS011;55836;49.858;6.756;2023-11-19T09:30:11;26.87;;;11.40;;
68680;SDS011;55836;49.858;6.756;2023-11-19T09:32:37;20.37;;;5.37;;
68680;SDS011;55836;49.858;6.756;2023-11-19T09:35:04;14.90;;;5.53;;
68680;SDS011;55836;49.858;6.756;2023-11-19T09:37:31;15.97;;;4.70;;
68680;SDS011;55836;49.858;6.756;2023-11-19T09:39:57;15.77;;;6.40;;
68680;SDS011;55836;49.858;6.756;2023-11-19T09:42:23;18.80;;;6.10;;
68680;SDS011;55836;49.858;6.756;2023-11-19T09:44:49;11.03;;;4.17;;
68680;SDS011;55836;49.858;6.756;2023-11-19T09:47:16;9.27;;;4.00;;
68680;SDS011;55836;49.858;6.756;2023-11-19T09:49:42;8.03;;;3.50;;
68680;SDS011;55836;49.858;6.756;2023-11-19T09:52:08;11.67;;;4.50;;
68680;SDS011;55836;49.858;6.756;2023-11-19T09:54:34;12.50;;;4.63;;
68680;SDS011;55836;49.858;6.756;2023-11-19T09:57:01;14.87;;;3.63;;
68680;SDS011;55836;49.858;6.756;2023-11-19T09:59:29;13.93;;;3.50;;
68680;SDS011;55836;49.858;6.756;2023-11-19T10:01:56;16.10;;;3.60;;
68680;SDS011;55836;49.858;6.756;2023-11-19T10:04:22;11.73;;;3.67;;
68680;SDS011;55836;49.858;6.756;2023-11-19T10:06:51;11.47;;;3.87;;
68680;SDS011;55836;49.858;6.756;2023-11-19T10:09:17;16.03;;;3.20;;
68680;SDS011;55836;49.858;6.756;2023-11-19T10:11:44;17.13;;;3.70;;
68680;SDS011;55836;49.858;6.756;2023-11-19T10:14:10;10.23;;;3.43;;
68680;SDS011;55836;49.858;6.756;2023-11-19T10:16:36;7.73;;;2.63;;
68680;SDS011;55836;49.858;6.756;2023-11-19T10:19:03;13.27;;;3.30;;
68680;SDS011;55836;49.858;6.756;2023-11-19T10:21:32;10.30;;;3.23;;
68680;SDS011;55836;49.858;6.756;2023-11-19T10:23:58;12.13;;;2.70;;
68680;SDS011;55836;49.858;6.756;2023-11-19T10:26:25;9.40;;;2.80;;
68680;SDS011;55836;49.858;6.756;2023-11-19T10:28:52;11.50;;;2.73;;
68680;SDS011;55836;49.858;6.756;2023-11-19T10:31:18;10.30;;;3.20;;
68680;SDS011;55836;49.858;6.756;2023-11-19T10:33:48;10.20;;;2.67;;
68680;SDS011;55836;49.858;6.756;2023-11-19T10:36:14;11.87;;;3.07;;
68680;SDS011;55836;49.858;6.756;2023-11-19T10:38:40;11.77;;;3.50;;
68680;SDS011;55836;49.858;6.756;2023-11-19T10:41:07;9.80;;;3.73;;
68680;SDS011;55836;49.858;6.756;2023-11-19T10:43:42;18.97;;;3.77;;
68680;SDS011;55836;49.858;6.756;2023-11-19T10:46:13;13.00;;;2.87;;
68680;SDS011;55836;49.858;6.756;2023-11-19T10:48:39;15.20;;;3.13;;
68680;SDS011;55836;49.858;6.756;2023-11-19T10:51:06;17.00;;;3.27;;
68680;SDS011;55836;49.858;6.756;2023-11-19T10:53:36;13.93;;;3.63;;
68680;SDS011;55836;49.858;6.756;2023-11-19T10:56:02;11.03;;;2.70;;
68680;SDS011;55836;49.858;6.756;2023-11-19T10:58:31;17.63;;;4.03;;
68680;SDS011;55836;49.858;6.756;2023-11-19T11:01:01;15.57;;;3.23;;
68680;SDS011;55836;49.858;6.756;2023-11-19T11:03:29;12.37;;;2.73;;
68680;SDS011;55836;49.858;6.756;2023-11-19T11:05:57;10.67;;;3.30;;
68680;SDS011;55836;49.858;6.756;2023-11-19T11:08:23;9.60;;;2.73;;
68680;SDS011;55836;49.858;6.756;2023-11-19T11:10:53;13.67;;;3.53;;
68680;SDS011;55836;49.858;6.756;2023-11-19T11:13:19;18.87;;;3.53;;
68680;SDS011;55836;49.858;6.756;2023-11-19T11:15:48;15.40;;;3.73;;
68680;SDS011;55836;49.858;6.756;2023-11-19T11:18:14;9.67;;;2.37;;
68680;SDS011;55836;49.858;6.756;2023-11-19T11:20:40;14.40;;;3.10;;
68680;SDS011;55836;49.858;6.756;2023-11-19T11:25:39;15.20;;;3.30;;
68680;SDS011;55836;49.858;6.756;2023-11-19T11:33:37;11.47;;;3.30;;
68680;SDS011;55836;49.858;6.756;2023-11-19T11:36:13;13.83;;;3.43;;
68680;SDS011;55836;49.858;6.756;2023-11-19T11:38:42;12.87;;;3.23;;
68680;SDS011;55836;49.858;6.756;2023-11-19T11:41:15;11.50;;;2.80;;
68680;SDS011;55836;49.858;6.756;2023-11-19T11:43:53;18.40;;;3.43;;
68680;SDS011;55836;49.858;6.756;2023-11-19T11:49:01;17.90;;;3.50;;
68680;SDS011;55836;49.858;6.756;2023-11-19T12:02:08;13.53;;;3.57;;
68680;SDS011;55836;49.858;6.756;2023-11-19T12:04:34;18.80;;;2.90;;
68680;SDS011;55836;49.858;6.756;2023-11-19T12:07:04;10.90;;;3.47;;
68680;SDS011;55836;49.858;6.756;2023-11-19T12:09:31;16.30;;;3.17;;
68680;SDS011;55836;49.858;6.756;2023-11-19T12:12:07;14.10;;;3.70;;
68680;SDS011;55836;49.858;6.756;2023-11-19T12:20:02;17.93;;;9.93;;
68680;SDS011;55836;49.858;6.756;2023-11-19T12:22:29;11.40;;;3.97;;
68680;SDS011;55836;49.858;6.756;2023-11-19T12:24:55;10.10;;;3.37;;
68680;SDS011;55836;49.858;6.756;2023-11-19T12:27:21;14.60;;;3.37;;
68680;SDS011;55836;49.858;6.756;2023-11-19T12:29:47;8.67;;;3.23;;
68680;SDS011;55836;49.858;6.756;2023-11-19T12:32:13;10.67;;;3.17;;
68680;SDS011;55836;49.858;6.756;2023-11-19T12:34:39;13.87;;;3.50;;
68680;SDS011;55836;49.858;6.756;2023-11-19T12:37:05;20.03;;;3.20;;
68680;SDS011;55836;49.858;6.756;2023-11-19T12:39:33;14.40;;;3.70;;
68680;SDS011;55836;49.858;6.756;2023-11-19T12:41:59;13.83;;;3.67;;
68680;SDS011;55836;49.858;6.756;2023-11-19T12:44:25;14.27;;;3.83;;
68680;SDS011;55836;49.858;6.756;2023-11-19T12:47:04;15.47;;;3.40;;
68680;SDS011;55836;49.858;6.756;2023-11-19T12:49:31;15.07;;;4.07;;
68680;SDS011;55836;49.858;6.756;2023-11-19T12:51:58;13.10;;;3.53;;
68680;SDS011;55836;49.858;6.756;2023-11-19T12:54:34;11.73;;;3.30;;
68680;SDS011;55836;49.858;6.756;2023-11-19T12:57:00;12.63;;;3.80;;
68680;SDS011;55836;49.858;6.756;2023-11-19T12:59:26;16.83;;;2.93;;
68680;SDS011;55836;49.858;6.756;2023-11-19T13:01:58;15.03;;;3.03;;
68680;SDS011;55836;49.858;6.756;2023-11-19T13:04:30;11.20;;;3.07;;
68680;SDS011;55836;49.858;6.756;2023-11-19T13:06:57;15.13;;;3.40;;
68680;SDS011;55836;49.858;6.756;2023-11-19T13:09:24;16.73;;;3.30;;
68680;SDS011;55836;49.858;6.756;2023-11-19T13:11:50;10.53;;;2.80;;
68680;SDS011;55836;49.858;6.756;2023-11-19T13:14:17;12.60;;;2.93;;
68680;SDS011;55836;49.858;6.756;2023-11-19T13:16:43;10.30;;;3.10;;
68680;SDS011;55836;49.858;6.756;2023-11-19T13:19:13;13.97;;;3.03;;
68680;SDS011;55836;49.858;6.756;2023-11-19T13:21:39;14.17;;;3.70;;
68680;SDS011;55836;49.858;6.756;2023-11-19T13:24:08;12.37;;;4.13;;
68680;SDS011;55836;49.858;6.756;2023-11-19T13:26:34;15.13;;;3.77;;
68680;SDS011;55836;49.858;6.756;2023-11-19T13:29:00;10.30;;;2.63;;
68680;SDS011;55836;49.858;6.756;2023-11-19T13:31:26;13.90;;;4.23;;
68680;SDS011;55836;49.858;6.756;2023-11-19T13:33:53;14.57;;;3.80;;
68680;SDS011;55836;49.858;6.756;2023-11-19T13:36:19;8.47;;;2.87;;
68680;SDS011;55836;49.858;6.756;2023-11-19T13:38:45;11.13;;;3.60;;
68680;SDS011;55836;49.858;6.756;2023-11-19T13:41:12;11.07;;;3.80;;
68680;SDS011;55836;49.858;6.756;2023-11-19T13:43:39;15.13;;;4.30;;
68680;SDS011;55836;49.858;6.756;2023-11-19T13:46:05;11.70;;;3.53;;
68680;SDS011;55836;49.858;6.756;2023-11-19T13:48:31;8.33;;;3.83;;
68680;SDS011;55836;49.858;6.756;2023-11-19T13:50:57;12.33;;;3.07;;
68680;SDS011;55836;49.858;6.756;2023-11-19T13:53:23;11.73;;;2.80;;
68680;SDS011;55836;49.858;6.756;2023-11-19T13:55:49;13.00;;;3.27;;
68680;SDS011;55836;49.858;6.756;2023-11-19T13:58:15;12.60;;;3.47;;
68680;SDS011;55836;49.858;6.756;2023-11-19T14:00:41;10.13;;;3.23;;
68680;SDS011;55836;49.858;6.756;2023-11-19T14:03:08;9.97;;;2.20;;
68680;SDS011;55836;49.858;6.756;2023-11-19T14:05:37;9.43;;;2.63;;
68680;SDS011;55836;49.858;6.756;2023-11-19T14:08:04;11.97;;;3.00;;
68680;SDS011;55836;49.858;6.756;2023-11-19T14:10:39;12.10;;;2.50;;
68680;SDS011;55836;49.858;6.756;2023-11-19T14:13:06;11.50;;;2.80;;
68680;SDS011;55836;49.858;6.756;2023-11-19T14:15:32;8.90;;;2.40;;
68680;SDS011;55836;49.858;6.756;2023-11-19T14:17:58;12.63;;;3.13;;
68680;SDS011;55836;49.858;6.756;2023-11-19T14:20:24;9.63;;;3.00;;
68680;SDS011;55836;49.858;6.756;2023-11-19T14:22:50;6.87;;;2.70;;
68680;SDS011;55836;49.858;6.756;2023-11-19T14:25:17;11.90;;;3.13;;
68680;SDS011;55836;49.858;6.756;2023-11-19T14:27:44;11.13;;;3.50;;
68680;SDS011;55836;49.858;6.756;2023-11-19T14:30:11;9.93;;;2.63;;
68680;SDS011;55836;49.858;6.756;2023-11-19T14:32:41;10.57;;;3.27;;
68680;SDS011;55836;49.858;6.756;2023-11-19T14:35:09;11.57;;;2.77;;
68680;SDS011;55836;49.858;6.756;2023-11-19T14:37:35;9.33;;;2.87;;
68680;SDS011;55836;49.858;6.756;2023-11-19T14:40:02;12.60;;;3.73;;
68680;SDS011;55836;49.858;6.756;2023-11-19T14:42:30;10.23;;;3.50;;
68680;SDS011;55836;49.858;6.756;2023-11-19T14:44:56;11.57;;;2.50;;
68680;SDS011;55836;49.858;6.756;2023-11-19T14:47:22;12.43;;;3.00;;
68680;SDS011;55836;49.858;6.756;2023-11-19T14:49:48;9.17;;;3.07;;
68680;SDS011;55836;49.858;6.756;2023-11-19T14:52:14;13.20;;;3.13;;
68680;SDS011;55836;49.858;6.756;2023-11-19T14:54:40;14.40;;;3.43;;
68680;SDS011;55836;49.858;6.756;2023-11-19T14:57:07;13.93;;;3.03;;
68680;SDS011;55836;49.858;6.756;2023-11-19T14:59:33;14.37;;;3.37;;
68680;SDS011;55836;49.858;6.756;2023-11-19T15:02:00;13.07;;;2.80;;
68680;SDS011;55836;49.858;6.756;2023-11-19T15:04:26;12.87;;;3.33;;